sensor_id;sensor_type;location;lat;lon;timestamp;P1;durP1;ratioP1;P2;durP2;ratioP2
75009;SDS011;63564;46.840;18.336;2023-07-13T00:01:05;11.70;;;4.27;;
75009;SDS011;63564;46.840;18.336;2023-07-13T00:04:06;9.90;;;4.80;;
75009;SDS011;63564;46.840;18.336;2023-07-13T00:07:07;10.40;;;4.47;;
75009;SDS011;63564;46.840;18.336;2023-07-13T00:10:08;12.45;;;5.20;;
75009;SDS011;63564;46.840;18.336;2023-07-13T00:13:08;13.30;;;5.10;;
75009;SDS011;63564;46.840;18.336;2023-07-13T00:16:10;10.45;;;5.13;;
75009;SDS011;63564;46.840;18.336;2023-07-13T00:19:11;13.98;;;5.43;;
75009;SDS011;63564;46.840;18.336;2023-07-13T00:22:12;10.02;;;4.88;;
75009;SDS011;63564;46.840;18.336;2023-07-13T00:25:13;10.57;;;5.27;;
75009;SDS011;63564;46.840;18.336;2023-07-13T00:28:13;9.50;;;4.80;;
75009;SDS011;63564;46.840;18.336;2023-07-13T00:31:14;8.27;;;4.63;;
75009;SDS011;63564;46.840;18.336;2023-07-13T00:34:15;10.50;;;4.38;;
75009;SDS011;63564;46.840;18.336;2023-07-13T00:37:15;9.33;;;4.30;;
75009;SDS011;63564;46.840;18.336;2023-07-13T00:40:16;11.73;;;4.50;;
75009;SDS011;63564;46.840;18.336;2023-07-13T00:43:17;10.82;;;4.28;;
75009;SDS011;63564;46.840;18.336;2023-07-13T00:49:23;9.47;;;4.70;;
75009;SDS011;63564;46.840;18.336;2023-07-13T00:52:25;8.60;;;4.25;;
75009;SDS011;63564;46.840;18.336;2023-07-13T00:55:28;11.15;;;4.60;;
75009;SDS011;63564;46.840;18.336;2023-07-13T00:58:28;9.53;;;4.17;;
75009;SDS011;63564;46.840;18.336;2023-07-13T01:01:29;9.70;;;4.30;;
75009;SDS011;63564;46.840;18.336;2023-07-13T01:04:30;8.43;;;4.23;;
75009;SDS011;63564;46.840;18.336;2023-07-13T01:07:30;8.82;;;4.40;;
75009;SDS011;63564;46.840;18.336;2023-07-13T01:10:31;8.57;;;4.07;;
75009;SDS011;63564;46.840;18.336;2023-07-13T01:13:38;9.13;;;3.72;;
75009;SDS011;63564;46.840;18.336;2023-07-13T01:16:39;9.40;;;4.17;;
75009;SDS011;63564;46.840;18.336;2023-07-13T01:19:42;8.30;;;3.90;;
75009;SDS011;63564;46.840;18.336;2023-07-13T01:22:44;10.67;;;4.37;;
75009;SDS011;63564;46.840;18.336;2023-07-13T01:25:44;10.03;;;4.10;;
75009;SDS011;63564;46.840;18.336;2023-07-13T01:28:45;9.07;;;4.10;;
75009;SDS011;63564;46.840;18.336;2023-07-13T01:31:45;8.33;;;4.27;;
75009;SDS011;63564;46.840;18.336;2023-07-13T01:34:45;8.73;;;4.00;;
75009;SDS011;63564;46.840;18.336;2023-07-13T01:37:46;7.70;;;3.90;;
75009;SDS011;63564;46.840;18.336;2023-07-13T01:40:47;9.40;;;4.10;;
75009;SDS011;63564;46.840;18.336;2023-07-13T01:43:47;8.47;;;4.13;;
75009;SDS011;63564;46.840;18.336;2023-07-13T01:46:47;6.70;;;3.90;;
75009;SDS011;63564;46.840;18.336;2023-07-13T01:49:48;9.17;;;4.00;;
75009;SDS011;63564;46.840;18.336;2023-07-13T01:52:49;8.82;;;3.78;;
75009;SDS011;63564;46.840;18.336;2023-07-13T01:55:50;9.27;;;3.70;;
75009;SDS011;63564;46.840;18.336;2023-07-13T01:58:51;7.10;;;3.60;;
75009;SDS011;63564;46.840;18.336;2023-07-13T02:01:52;8.70;;;3.83;;
75009;SDS011;63564;46.840;18.336;2023-07-13T02:04:52;8.30;;;3.57;;
75009;SDS011;63564;46.840;18.336;2023-07-13T02:07:52;6.87;;;3.70;;
75009;SDS011;63564;46.840;18.336;2023-07-13T02:10:53;6.87;;;3.83;;
75009;SDS011;63564;46.840;18.336;2023-07-13T02:13:53;8.07;;;3.80;;
75009;SDS011;63564;46.840;18.336;2023-07-13T02:16:53;7.37;;;3.83;;
75009;SDS011;63564;46.840;18.336;2023-07-13T02:19:54;9.30;;;4.20;;
75009;SDS011;63564;46.840;18.336;2023-07-13T02:22:54;9.93;;;4.20;;
75009;SDS011;63564;46.840;18.336;2023-07-13T02:25:55;7.07;;;3.63;;
75009;SDS011;63564;46.840;18.336;2023-07-13T02:28:56;7.22;;;3.80;;
75009;SDS011;63564;46.840;18.336;2023-07-13T02:31:57;8.00;;;4.17;;
75009;SDS011;63564;46.840;18.336;2023-07-13T02:34:57;7.75;;;3.83;;
75009;SDS011;63564;46.840;18.336;2023-07-13T02:37:57;7.87;;;4.00;;
75009;SDS011;63564;46.840;18.336;2023-07-13T02:40:58;10.03;;;4.60;;
75009;SDS011;63564;46.840;18.336;2023-07-13T02:43:58;7.63;;;4.30;;
75009;SDS011;63564;46.840;18.336;2023-07-13T02:47:03;9.13;;;4.40;;
75009;SDS011;63564;46.840;18.336;2023-07-13T02:50:04;7.60;;;3.90;;
75009;SDS011;63564;46.840;18.336;2023-07-13T02:53:05;8.98;;;4.50;;
75009;SDS011;63564;46.840;18.336;2023-07-13T02:56:05;8.70;;;3.80;;
75009;SDS011;63564;46.840;18.336;2023-07-13T02:59:06;10.25;;;4.38;;
75009;SDS011;63564;46.840;18.336;2023-07-13T03:02:06;8.57;;;4.23;;
75009;SDS011;63564;46.840;18.336;2023-07-13T03:05:08;10.48;;;4.70;;
75009;SDS011;63564;46.840;18.336;2023-07-13T03:08:11;11.07;;;5.30;;
75009;SDS011;63564;46.840;18.336;2023-07-13T03:11:13;8.97;;;4.20;;
75009;SDS011;63564;46.840;18.336;2023-07-13T03:14:15;10.63;;;4.60;;
75009;SDS011;63564;46.840;18.336;2023-07-13T03:17:15;8.97;;;4.23;;
75009;SDS011;63564;46.840;18.336;2023-07-13T03:20:16;9.35;;;4.30;;
75009;SDS011;63564;46.840;18.336;2023-07-13T03:23:16;9.90;;;4.47;;
75009;SDS011;63564;46.840;18.336;2023-07-13T03:26:18;10.00;;;4.53;;
75009;SDS011;63564;46.840;18.336;2023-07-13T03:29:20;8.27;;;4.22;;
75009;SDS011;63564;46.840;18.336;2023-07-13T03:32:20;11.20;;;5.00;;
75009;SDS011;63564;46.840;18.336;2023-07-13T03:35:20;11.67;;;5.73;;
75009;SDS011;63564;46.840;18.336;2023-07-13T03:38:21;9.20;;;5.60;;
75009;SDS011;63564;46.840;18.336;2023-07-13T03:41:22;10.30;;;4.82;;
75009;SDS011;63564;46.840;18.336;2023-07-13T03:44:23;12.27;;;5.23;;
75009;SDS011;63564;46.840;18.336;2023-07-13T03:47:23;12.35;;;6.10;;
75009;SDS011;63564;46.840;18.336;2023-07-13T03:50:23;11.63;;;5.77;;
75009;SDS011;63564;46.840;18.336;2023-07-13T03:53:24;11.57;;;5.73;;
75009;SDS011;63564;46.840;18.336;2023-07-13T03:56:24;12.43;;;6.03;;
75009;SDS011;63564;46.840;18.336;2023-07-13T03:59:25;13.33;;;6.73;;
75009;SDS011;63564;46.840;18.336;2023-07-13T04:02:25;12.83;;;6.50;;
75009;SDS011;63564;46.840;18.336;2023-07-13T04:05:25;14.27;;;6.80;;
75009;SDS011;63564;46.840;18.336;2023-07-13T04:08:30;15.30;;;7.63;;
75009;SDS011;63564;46.840;18.336;2023-07-13T04:11:33;15.37;;;8.40;;
75009;SDS011;63564;46.840;18.336;2023-07-13T04:14:36;11.52;;;5.95;;
75009;SDS011;63564;46.840;18.336;2023-07-13T04:17:37;7.28;;;2.88;;
75009;SDS011;63564;46.840;18.336;2023-07-13T04:20:37;8.13;;;2.10;;
75009;SDS011;63564;46.840;18.336;2023-07-13T04:23:38;7.63;;;1.67;;
75009;SDS011;63564;46.840;18.336;2023-07-13T04:52:35;6.03;;;1.80;;
75009;SDS011;63564;46.840;18.336;2023-07-13T04:55:36;3.90;;;1.70;;
75009;SDS011;63564;46.840;18.336;2023-07-13T04:58:36;5.63;;;1.92;;
75009;SDS011;63564;46.840;18.336;2023-07-13T05:01:37;6.23;;;2.20;;
75009;SDS011;63564;46.840;18.336;2023-07-13T05:04:37;5.10;;;2.20;;
75009;SDS011;63564;46.840;18.336;2023-07-13T05:07:38;4.50;;;1.98;;
75009;SDS011;63564;46.840;18.336;2023-07-13T05:10:38;3.80;;;1.80;;
75009;SDS011;63564;46.840;18.336;2023-07-13T05:13:38;5.77;;;2.13;;
75009;SDS011;63564;46.840;18.336;2023-07-13T05:16:39;4.70;;;1.93;;
75009;SDS011;63564;46.840;18.336;2023-07-13T05:19:39;5.67;;;1.93;;
75009;SDS011;63564;46.840;18.336;2023-07-13T05:22:39;5.00;;;1.57;;
75009;SDS011;63564;46.840;18.336;2023-07-13T05:25:40;4.20;;;1.90;;
75009;SDS011;63564;46.840;18.336;2023-07-13T05:28:40;4.77;;;2.20;;
75009;SDS011;63564;46.840;18.336;2023-07-13T05:31:40;4.90;;;1.75;;
75009;SDS011;63564;46.840;18.336;2023-07-13T05:34:41;4.67;;;2.20;;
75009;SDS011;63564;46.840;18.336;2023-07-13T05:37:41;5.50;;;2.20;;
75009;SDS011;63564;46.840;18.336;2023-07-13T05:40:42;4.40;;;2.20;;
75009;SDS011;63564;46.840;18.336;2023-07-13T05:43:46;5.78;;;2.30;;
75009;SDS011;63564;46.840;18.336;2023-07-13T05:46:46;5.93;;;2.10;;
75009;SDS011;63564;46.840;18.336;2023-07-13T05:49:47;5.33;;;2.23;;
75009;SDS011;63564;46.840;18.336;2023-07-13T05:52:47;5.90;;;2.50;;
75009;SDS011;63564;46.840;18.336;2023-07-13T05:55:47;5.87;;;2.43;;
75009;SDS011;63564;46.840;18.336;2023-07-13T05:58:49;6.85;;;3.08;;
75009;SDS011;63564;46.840;18.336;2023-07-13T06:01:50;5.47;;;2.40;;
75009;SDS011;63564;46.840;18.336;2023-07-13T06:04:52;6.38;;;2.90;;
75009;SDS011;63564;46.840;18.336;2023-07-13T06:07:52;5.37;;;2.50;;
75009;SDS011;63564;46.840;18.336;2023-07-13T06:10:53;6.30;;;2.93;;
75009;SDS011;63564;46.840;18.336;2023-07-13T06:13:53;5.43;;;2.50;;
75009;SDS011;63564;46.840;18.336;2023-07-13T06:16:54;5.78;;;2.80;;
75009;SDS011;63564;46.840;18.336;2023-07-13T06:19:54;6.10;;;2.60;;
75009;SDS011;63564;46.840;18.336;2023-07-13T06:22:54;6.03;;;3.00;;
75009;SDS011;63564;46.840;18.336;2023-07-13T06:25:55;7.57;;;2.80;;
75009;SDS011;63564;46.840;18.336;2023-07-13T06:28:56;6.32;;;3.10;;
75009;SDS011;63564;46.840;18.336;2023-07-13T06:31:56;6.67;;;3.13;;
75009;SDS011;63564;46.840;18.336;2023-07-13T06:34:57;5.93;;;2.95;;
75009;SDS011;63564;46.840;18.336;2023-07-13T06:37:57;5.43;;;2.70;;
75009;SDS011;63564;46.840;18.336;2023-07-13T06:40:58;5.70;;;2.80;;
75009;SDS011;63564;46.840;18.336;2023-07-13T06:43:58;7.23;;;2.67;;
75009;SDS011;63564;46.840;18.336;2023-07-13T06:46:59;5.70;;;2.50;;
75009;SDS011;63564;46.840;18.336;2023-07-13T06:50:00;6.55;;;2.50;;
75009;SDS011;63564;46.840;18.336;2023-07-13T06:53:00;5.83;;;2.50;;
75009;SDS011;63564;46.840;18.336;2023-07-13T06:56:01;5.78;;;2.42;;
75009;SDS011;63564;46.840;18.336;2023-07-13T06:59:01;6.57;;;2.73;;
75009;SDS011;63564;46.840;18.336;2023-07-13T07:02:01;7.30;;;2.90;;
75009;SDS011;63564;46.840;18.336;2023-07-13T07:05:02;5.67;;;2.70;;
75009;SDS011;63564;46.840;18.336;2023-07-13T07:08:03;6.20;;;2.83;;
75009;SDS011;63564;46.840;18.336;2023-07-13T07:11:03;5.03;;;2.60;;
75009;SDS011;63564;46.840;18.336;2023-07-13T07:14:04;6.73;;;2.80;;
75009;SDS011;63564;46.840;18.336;2023-07-13T07:17:04;5.10;;;2.20;;
75009;SDS011;63564;46.840;18.336;2023-07-13T07:20:05;5.10;;;2.77;;
75009;SDS011;63564;46.840;18.336;2023-07-13T07:23:06;7.25;;;2.88;;
75009;SDS011;63564;46.840;18.336;2023-07-13T07:26:06;7.60;;;3.23;;
75009;SDS011;63564;46.840;18.336;2023-07-13T07:29:08;6.40;;;3.00;;
75009;SDS011;63564;46.840;18.336;2023-07-13T07:32:09;6.00;;;2.90;;
75009;SDS011;63564;46.840;18.336;2023-07-13T07:35:09;8.30;;;3.13;;
75009;SDS011;63564;46.840;18.336;2023-07-13T07:38:10;5.90;;;3.10;;
75009;SDS011;63564;46.840;18.336;2023-07-13T07:41:11;7.10;;;3.63;;
75009;SDS011;63564;46.840;18.336;2023-07-13T07:44:11;6.95;;;3.53;;
75009;SDS011;63564;46.840;18.336;2023-07-13T07:47:12;7.53;;;3.30;;
75009;SDS011;63564;46.840;18.336;2023-07-13T07:50:12;6.07;;;3.10;;
75009;SDS011;63564;46.840;18.336;2023-07-13T07:53:13;6.57;;;3.20;;
75009;SDS011;63564;46.840;18.336;2023-07-13T07:56:14;5.57;;;2.83;;
75009;SDS011;63564;46.840;18.336;2023-07-13T07:59:16;5.47;;;3.17;;
75009;SDS011;63564;46.840;18.336;2023-07-13T08:02:16;6.20;;;3.20;;
75009;SDS011;63564;46.840;18.336;2023-07-13T08:05:16;6.60;;;3.60;;
75009;SDS011;63564;46.840;18.336;2023-07-13T08:08:17;6.90;;;3.53;;
75009;SDS011;63564;46.840;18.336;2023-07-13T08:11:17;9.93;;;3.70;;
75009;SDS011;63564;46.840;18.336;2023-07-13T08:14:18;5.78;;;3.20;;
75009;SDS011;63564;46.840;18.336;2023-07-13T08:17:18;5.97;;;3.30;;
75009;SDS011;63564;46.840;18.336;2023-07-13T08:20:22;5.90;;;3.33;;
75009;SDS011;63564;46.840;18.336;2023-07-13T08:23:22;6.97;;;3.27;;
75009;SDS011;63564;46.840;18.336;2023-07-13T08:26:23;6.77;;;3.63;;
75009;SDS011;63564;46.840;18.336;2023-07-13T08:29:24;5.70;;;3.22;;
75009;SDS011;63564;46.840;18.336;2023-07-13T08:32:24;6.50;;;2.80;;
75009;SDS011;63564;46.840;18.336;2023-07-13T08:35:25;6.27;;;2.60;;
75009;SDS011;63564;46.840;18.336;2023-07-13T08:38:25;5.10;;;2.80;;
75009;SDS011;63564;46.840;18.336;2023-07-13T08:41:26;5.57;;;2.73;;
75009;SDS011;63564;46.840;18.336;2023-07-13T08:44:30;5.77;;;2.90;;
75009;SDS011;63564;46.840;18.336;2023-07-13T08:47:52;5.13;;;2.73;;
75009;SDS011;63564;46.840;18.336;2023-07-13T08:54:41;4.50;;;2.30;;
75009;SDS011;63564;46.840;18.336;2023-07-13T08:57:53;6.70;;;2.70;;
75009;SDS011;63564;46.840;18.336;2023-07-13T09:01:31;7.07;;;2.93;;
75009;SDS011;63564;46.840;18.336;2023-07-13T09:08:10;6.18;;;2.60;;
75009;SDS011;63564;46.840;18.336;2023-07-13T09:14:48;7.00;;;2.50;;
75009;SDS011;63564;46.840;18.336;2023-07-13T09:17:53;4.23;;;2.23;;
75009;SDS011;63564;46.840;18.336;2023-07-13T09:20:57;5.30;;;2.70;;
75009;SDS011;63564;46.840;18.336;2023-07-13T09:24:27;4.68;;;2.60;;
75009;SDS011;63564;46.840;18.336;2023-07-13T09:27:59;5.25;;;2.63;;
75009;SDS011;63564;46.840;18.336;2023-07-13T09:34:11;5.47;;;3.40;;
75009;SDS011;63564;46.840;18.336;2023-07-13T09:37:12;5.13;;;2.50;;
75009;SDS011;63564;46.840;18.336;2023-07-13T09:40:24;4.90;;;2.45;;
75009;SDS011;63564;46.840;18.336;2023-07-13T09:43:32;5.47;;;2.60;;
75009;SDS011;63564;46.840;18.336;2023-07-13T09:46:33;5.18;;;2.60;;
75009;SDS011;63564;46.840;18.336;2023-07-13T09:49:35;4.50;;;2.30;;
75009;SDS011;63564;46.840;18.336;2023-07-13T09:52:43;6.47;;;2.70;;
75009;SDS011;63564;46.840;18.336;2023-07-13T09:55:46;7.32;;;2.70;;
75009;SDS011;63564;46.840;18.336;2023-07-13T09:58:48;4.27;;;2.43;;
75009;SDS011;63564;46.840;18.336;2023-07-13T10:01:49;5.60;;;2.67;;
75009;SDS011;63564;46.840;18.336;2023-07-13T10:04:55;5.78;;;2.60;;
75009;SDS011;63564;46.840;18.336;2023-07-13T10:07:58;5.63;;;2.40;;
75009;SDS011;63564;46.840;18.336;2023-07-13T10:10:59;5.30;;;2.70;;
75009;SDS011;63564;46.840;18.336;2023-07-13T10:14:09;4.77;;;2.73;;
75009;SDS011;63564;46.840;18.336;2023-07-13T10:17:14;5.28;;;2.97;;
75009;SDS011;63564;46.840;18.336;2023-07-13T10:20:19;4.78;;;2.63;;
75009;SDS011;63564;46.840;18.336;2023-07-13T10:23:21;6.18;;;2.45;;
75009;SDS011;63564;46.840;18.336;2023-07-13T10:26:31;5.28;;;2.70;;
75009;SDS011;63564;46.840;18.336;2023-07-13T10:29:35;5.50;;;2.73;;
75009;SDS011;63564;46.840;18.336;2023-07-13T10:32:41;4.53;;;2.70;;
75009;SDS011;63564;46.840;18.336;2023-07-13T10:35:42;4.70;;;2.67;;
75009;SDS011;63564;46.840;18.336;2023-07-13T10:38:44;5.60;;;2.63;;
75009;SDS011;63564;46.840;18.336;2023-07-13T10:41:48;5.63;;;2.77;;
75009;SDS011;63564;46.840;18.336;2023-07-13T10:44:52;5.93;;;2.73;;
75009;SDS011;63564;46.840;18.336;2023-07-13T10:47:52;6.13;;;2.60;;
75009;SDS011;63564;46.840;18.336;2023-07-13T10:50:55;5.50;;;2.45;;
75009;SDS011;63564;46.840;18.336;2023-07-13T10:57:19;4.93;;;2.50;;
75009;SDS011;63564;46.840;18.336;2023-07-13T11:00:21;4.88;;;2.70;;
75009;SDS011;63564;46.840;18.336;2023-07-13T11:03:22;5.27;;;2.57;;
75009;SDS011;63564;46.840;18.336;2023-07-13T11:09:39;4.88;;;2.35;;
75009;SDS011;63564;46.840;18.336;2023-07-13T11:15:47;4.72;;;2.47;;
75009;SDS011;63564;46.840;18.336;2023-07-13T11:18:49;5.83;;;2.50;;
75009;SDS011;63564;46.840;18.336;2023-07-13T11:28:30;5.30;;;2.13;;
75009;SDS011;63564;46.840;18.336;2023-07-13T11:31:32;4.53;;;2.20;;
75009;SDS011;63564;46.840;18.336;2023-07-13T11:34:35;6.47;;;2.20;;
75009;SDS011;63564;46.840;18.336;2023-07-13T11:37:38;4.95;;;2.33;;
75009;SDS011;63564;46.840;18.336;2023-07-13T11:40:39;4.80;;;2.20;;
75009;SDS011;63564;46.840;18.336;2023-07-13T11:43:39;5.93;;;2.40;;
75009;SDS011;63564;46.840;18.336;2023-07-13T11:46:44;5.47;;;2.20;;
75009;SDS011;63564;46.840;18.336;2023-07-13T11:49:55;3.80;;;2.10;;
75009;SDS011;63564;46.840;18.336;2023-07-13T11:52:57;4.35;;;2.28;;
75009;SDS011;63564;46.840;18.336;2023-07-13T11:55:58;4.00;;;2.17;;
75009;SDS011;63564;46.840;18.336;2023-07-13T11:59:02;4.53;;;2.03;;
75009;SDS011;63564;46.840;18.336;2023-07-13T12:02:13;4.32;;;2.22;;
75009;SDS011;63564;46.840;18.336;2023-07-13T12:05:18;4.57;;;2.33;;
75009;SDS011;63564;46.840;18.336;2023-07-13T12:08:20;4.43;;;2.20;;
75009;SDS011;63564;46.840;18.336;2023-07-13T12:11:21;5.05;;;2.10;;
75009;SDS011;63564;46.840;18.336;2023-07-13T12:14:22;4.13;;;2.17;;
75009;SDS011;63564;46.840;18.336;2023-07-13T12:17:25;4.78;;;2.25;;
75009;SDS011;63564;46.840;18.336;2023-07-13T12:20:44;7.85;;;2.67;;
75009;SDS011;63564;46.840;18.336;2023-07-13T12:23:47;5.25;;;2.22;;
75009;SDS011;63564;46.840;18.336;2023-07-13T12:26:54;5.00;;;2.30;;
75009;SDS011;63564;46.840;18.336;2023-07-13T12:30:06;4.77;;;2.00;;
75009;SDS011;63564;46.840;18.336;2023-07-13T12:33:31;6.20;;;2.15;;
75009;SDS011;63564;46.840;18.336;2023-07-13T12:36:34;4.97;;;2.40;;
75009;SDS011;63564;46.840;18.336;2023-07-13T12:39:37;5.32;;;2.33;;
75009;SDS011;63564;46.840;18.336;2023-07-13T12:42:43;4.82;;;2.10;;
75009;SDS011;63564;46.840;18.336;2023-07-13T12:45:57;4.70;;;2.30;;
75009;SDS011;63564;46.840;18.336;2023-07-13T12:48:59;5.22;;;2.20;;
75009;SDS011;63564;46.840;18.336;2023-07-13T12:52:01;5.13;;;2.10;;
75009;SDS011;63564;46.840;18.336;2023-07-13T12:58:19;4.00;;;1.87;;
75009;SDS011;63564;46.840;18.336;2023-07-13T13:01:28;3.77;;;2.00;;
75009;SDS011;63564;46.840;18.336;2023-07-13T13:04:31;9.68;;;2.78;;
75009;SDS011;63564;46.840;18.336;2023-07-13T13:07:32;5.23;;;2.10;;
75009;SDS011;63564;46.840;18.336;2023-07-13T13:10:32;4.03;;;1.93;;
75009;SDS011;63564;46.840;18.336;2023-07-13T13:13:33;5.03;;;1.90;;
75009;SDS011;63564;46.840;18.336;2023-07-13T13:16:44;4.17;;;1.97;;
75009;SDS011;63564;46.840;18.336;2023-07-13T13:19:49;5.25;;;2.00;;
75009;SDS011;63564;46.840;18.336;2023-07-13T13:22:50;4.93;;;1.88;;
75009;SDS011;63564;46.840;18.336;2023-07-13T13:25:50;3.90;;;2.20;;
75009;SDS011;63564;46.840;18.336;2023-07-13T13:28:51;4.70;;;1.87;;
75009;SDS011;63564;46.840;18.336;2023-07-13T13:31:51;3.73;;;2.00;;
75009;SDS011;63564;46.840;18.336;2023-07-13T13:34:53;3.60;;;1.70;;
75009;SDS011;63564;46.840;18.336;2023-07-13T13:37:54;5.50;;;2.00;;
75009;SDS011;63564;46.840;18.336;2023-07-13T13:40:54;4.53;;;2.00;;
75009;SDS011;63564;46.840;18.336;2023-07-13T13:43:56;4.23;;;2.20;;
75009;SDS011;63564;46.840;18.336;2023-07-13T13:46:56;3.43;;;1.93;;
75009;SDS011;63564;46.840;18.336;2023-07-13T13:49:58;4.47;;;2.00;;
75009;SDS011;63564;46.840;18.336;2023-07-13T13:52:59;4.28;;;1.90;;
75009;SDS011;63564;46.840;18.336;2023-07-13T13:55:59;3.60;;;1.80;;
75009;SDS011;63564;46.840;18.336;2023-07-13T13:59:00;4.80;;;2.00;;
75009;SDS011;63564;46.840;18.336;2023-07-13T14:02:00;3.88;;;1.83;;
75009;SDS011;63564;46.840;18.336;2023-07-13T14:05:01;4.60;;;1.97;;
75009;SDS011;63564;46.840;18.336;2023-07-13T14:08:03;4.40;;;2.13;;
75009;SDS011;63564;46.840;18.336;2023-07-13T14:11:03;4.50;;;1.70;;
75009;SDS011;63564;46.840;18.336;2023-07-13T14:14:04;3.47;;;1.80;;
75009;SDS011;63564;46.840;18.336;2023-07-13T14:17:05;3.45;;;1.80;;
75009;SDS011;63564;46.840;18.336;2023-07-13T14:20:11;3.90;;;1.73;;
75009;SDS011;63564;46.840;18.336;2023-07-13T14:23:15;3.80;;;1.70;;
75009;SDS011;63564;46.840;18.336;2023-07-13T14:26:19;4.60;;;2.00;;
75009;SDS011;63564;46.840;18.336;2023-07-13T14:29:21;3.25;;;1.90;;
75009;SDS011;63564;46.840;18.336;2023-07-13T14:32:22;3.63;;;1.92;;
75009;SDS011;63564;46.840;18.336;2023-07-13T14:35:22;6.47;;;2.30;;
75009;SDS011;63564;46.840;18.336;2023-07-13T14:38:23;8.00;;;2.95;;
75009;SDS011;63564;46.840;18.336;2023-07-13T14:41:24;7.73;;;2.87;;
75009;SDS011;63564;46.840;18.336;2023-07-13T14:44:26;6.35;;;2.67;;
75009;SDS011;63564;46.840;18.336;2023-07-13T14:47:31;6.30;;;2.87;;
75009;SDS011;63564;46.840;18.336;2023-07-13T14:50:32;6.33;;;3.20;;
75009;SDS011;63564;46.840;18.336;2023-07-13T14:53:32;10.45;;;3.20;;
75009;SDS011;63564;46.840;18.336;2023-07-13T14:56:35;8.07;;;4.20;;
75009;SDS011;63564;46.840;18.336;2023-07-13T14:59:35;7.80;;;3.80;;
75009;SDS011;63564;46.840;18.336;2023-07-13T15:02:36;7.22;;;3.60;;
75009;SDS011;63564;46.840;18.336;2023-07-13T15:05:38;7.90;;;3.80;;
75009;SDS011;63564;46.840;18.336;2023-07-13T15:08:40;8.13;;;3.27;;
75009;SDS011;63564;46.840;18.336;2023-07-13T15:11:41;7.47;;;3.20;;
75009;SDS011;63564;46.840;18.336;2023-07-13T15:14:41;7.53;;;3.23;;
75009;SDS011;63564;46.840;18.336;2023-07-13T15:17:43;8.27;;;3.60;;
75009;SDS011;63564;46.840;18.336;2023-07-13T15:20:46;6.53;;;3.78;;
75009;SDS011;63564;46.840;18.336;2023-07-13T15:23:48;9.43;;;3.95;;
75009;SDS011;63564;46.840;18.336;2023-07-13T15:26:48;6.87;;;3.90;;
75009;SDS011;63564;46.840;18.336;2023-07-13T15:29:49;8.17;;;3.90;;
75009;SDS011;63564;46.840;18.336;2023-07-13T15:32:49;7.63;;;3.67;;
75009;SDS011;63564;46.840;18.336;2023-07-13T15:35:50;7.03;;;3.23;;
75009;SDS011;63564;46.840;18.336;2023-07-13T15:38:51;7.50;;;3.40;;
75009;SDS011;63564;46.840;18.336;2023-07-13T15:41:53;7.07;;;3.33;;
75009;SDS011;63564;46.840;18.336;2023-07-13T15:44:54;5.90;;;3.25;;
75009;SDS011;63564;46.840;18.336;2023-07-13T15:47:54;9.10;;;3.97;;
75009;SDS011;63564;46.840;18.336;2023-07-13T15:50:55;8.32;;;4.20;;
75009;SDS011;63564;46.840;18.336;2023-07-13T15:54:02;6.87;;;3.47;;
75009;SDS011;63564;46.840;18.336;2023-07-13T15:57:08;7.65;;;3.45;;
75009;SDS011;63564;46.840;18.336;2023-07-13T16:00:13;6.70;;;3.30;;
75009;SDS011;63564;46.840;18.336;2023-07-13T16:03:20;8.25;;;3.45;;
75009;SDS011;63564;46.840;18.336;2023-07-13T16:09:26;7.50;;;4.00;;
75009;SDS011;63564;46.840;18.336;2023-07-13T16:12:27;8.93;;;4.30;;
75009;SDS011;63564;46.840;18.336;2023-07-13T16:15:28;8.77;;;4.40;;
75009;SDS011;63564;46.840;18.336;2023-07-13T16:18:28;7.28;;;4.60;;
75009;SDS011;63564;46.840;18.336;2023-07-13T16:21:31;6.90;;;4.00;;
75009;SDS011;63564;46.840;18.336;2023-07-13T16:24:41;10.65;;;4.53;;
75009;SDS011;63564;46.840;18.336;2023-07-13T16:27:47;8.07;;;4.53;;
75009;SDS011;63564;46.840;18.336;2023-07-13T16:30:48;9.30;;;4.80;;
75009;SDS011;63564;46.840;18.336;2023-07-13T16:33:48;12.40;;;5.53;;
75009;SDS011;63564;46.840;18.336;2023-07-13T16:36:49;9.33;;;4.90;;
75009;SDS011;63564;46.840;18.336;2023-07-13T16:39:53;11.00;;;5.27;;
75009;SDS011;63564;46.840;18.336;2023-07-13T16:42:58;10.95;;;6.15;;
75009;SDS011;63564;46.840;18.336;2023-07-13T16:45:59;9.83;;;5.60;;
75009;SDS011;63564;46.840;18.336;2023-07-13T16:49:04;13.60;;;5.40;;
75009;SDS011;63564;46.840;18.336;2023-07-13T16:52:18;11.02;;;5.65;;
75009;SDS011;63564;46.840;18.336;2023-07-13T16:55:21;9.57;;;5.50;;
75009;SDS011;63564;46.840;18.336;2023-07-13T16:58:29;9.80;;;5.40;;
75009;SDS011;63564;46.840;18.336;2023-07-13T17:01:31;10.23;;;5.60;;
75009;SDS011;63564;46.840;18.336;2023-07-13T17:04:31;9.57;;;5.57;;
75009;SDS011;63564;46.840;18.336;2023-07-13T17:07:34;10.00;;;5.50;;
75009;SDS011;63564;46.840;18.336;2023-07-13T17:10:34;10.00;;;5.20;;
75009;SDS011;63564;46.840;18.336;2023-07-13T17:13:35;10.37;;;4.70;;
75009;SDS011;63564;46.840;18.336;2023-07-13T17:16:36;9.13;;;5.10;;
75009;SDS011;63564;46.840;18.336;2023-07-13T17:19:37;9.80;;;4.90;;
75009;SDS011;63564;46.840;18.336;2023-07-13T17:22:37;8.68;;;4.75;;
75009;SDS011;63564;46.840;18.336;2023-07-13T17:25:39;11.10;;;4.93;;
75009;SDS011;63564;46.840;18.336;2023-07-13T17:28:40;11.82;;;5.53;;
75009;SDS011;63564;46.840;18.336;2023-07-13T17:31:43;9.63;;;5.63;;
75009;SDS011;63564;46.840;18.336;2023-07-13T17:34:45;12.88;;;6.30;;
75009;SDS011;63564;46.840;18.336;2023-07-13T17:37:46;14.13;;;6.35;;
75009;SDS011;63564;46.840;18.336;2023-07-13T17:40:48;11.10;;;6.53;;
75009;SDS011;63564;46.840;18.336;2023-07-13T17:43:49;11.15;;;6.43;;
75009;SDS011;63564;46.840;18.336;2023-07-13T17:46:50;13.40;;;7.20;;
75009;SDS011;63564;46.840;18.336;2023-07-13T17:49:51;11.77;;;6.40;;
75009;SDS011;63564;46.840;18.336;2023-07-13T17:52:52;10.70;;;6.17;;
75009;SDS011;63564;46.840;18.336;2023-07-13T17:55:53;9.80;;;6.30;;
75009;SDS011;63564;46.840;18.336;2023-07-13T17:58:54;9.75;;;5.75;;
75009;SDS011;63564;46.840;18.336;2023-07-13T18:01:55;11.67;;;6.63;;
75009;SDS011;63564;46.840;18.336;2023-07-13T18:04:56;11.45;;;6.63;;
75009;SDS011;63564;46.840;18.336;2023-07-13T18:07:56;11.93;;;6.40;;
75009;SDS011;63564;46.840;18.336;2023-07-13T18:10:58;11.95;;;6.50;;
75009;SDS011;63564;46.840;18.336;2023-07-13T18:14:00;12.55;;;6.85;;
75009;SDS011;63564;46.840;18.336;2023-07-13T18:17:03;11.25;;;6.82;;
75009;SDS011;63564;46.840;18.336;2023-07-13T18:20:05;12.80;;;6.77;;
75009;SDS011;63564;46.840;18.336;2023-07-13T18:23:22;13.87;;;7.00;;
75009;SDS011;63564;46.840;18.336;2023-07-13T18:26:24;12.02;;;7.47;;
75009;SDS011;63564;46.840;18.336;2023-07-13T18:29:26;14.13;;;8.15;;
75009;SDS011;63564;46.840;18.336;2023-07-13T18:32:28;18.80;;;9.32;;
75009;SDS011;63564;46.840;18.336;2023-07-13T18:35:29;17.50;;;9.03;;
75009;SDS011;63564;46.840;18.336;2023-07-13T18:38:32;16.07;;;9.17;;
75009;SDS011;63564;46.840;18.336;2023-07-13T18:41:34;17.38;;;8.63;;
75009;SDS011;63564;46.840;18.336;2023-07-13T18:44:35;14.90;;;8.98;;
75009;SDS011;63564;46.840;18.336;2023-07-13T18:47:38;16.13;;;8.83;;
75009;SDS011;63564;46.840;18.336;2023-07-13T18:50:39;13.68;;;7.97;;
75009;SDS011;63564;46.840;18.336;2023-07-13T18:53:42;16.92;;;9.60;;
75009;SDS011;63564;46.840;18.336;2023-07-13T18:56:43;20.38;;;10.70;;
75009;SDS011;63564;46.840;18.336;2023-07-13T18:59:43;21.50;;;10.67;;
75009;SDS011;63564;46.840;18.336;2023-07-13T19:02:44;18.63;;;9.32;;